Time;durP1;ratioP1;P1;durP2;ratioP2;P2;SDS_P1;SDS_P2;PMS_P1;PMS_P2;Temp;Humidity;BMP_temperature;BMP_pressure;BME280_temperature;BME280_humidity;BME280_pressure;Samples;Min_cycle;Max_cycle;Signal;HPM_P1;HPM_P2
2023/03/27 00:00:19;;;;;;;14.93;4.75;;;;;;;11.02;68.25;100028.69;4987325;28;20179;-86
2023/03/27 00:02:48;;;;;;;12.35;5.97;;;;;;;11.10;68.66;100036.06;4991846;28;20038;-86
2023/03/27 00:05:15;;;;;;;13.50;4.97;;;;;;;11.11;67.92;100032.38;4991407;28;20122;-85
2023/03/27 00:07:41;;;;;;;6.90;4.55;;;;;;;11.14;68.26;100037.47;4992417;28;20058;-85
2023/03/27 00:10:08;;;;;;;12.27;5.43;;;;;;;11.07;68.54;100037.16;4975595;28;20033;-87
2023/03/27 00:12:34;;;;;;;18.02;5.85;;;;;;;11.09;68.30;100039.75;4991178;28;20026;-86
2023/03/27 00:15:00;;;;;;;22.23;6.65;;;;;;;11.04;68.19;100024.00;4990866;28;20023;-86
2023/03/27 00:17:26;;;;;;;10.75;5.97;;;;;;;11.04;68.73;100039.31;4992527;28;20398;-87
2023/03/27 00:19:52;;;;;;;18.20;6.03;;;;;;;11.06;68.59;100034.63;4992038;28;20431;-87
2023/03/27 00:22:18;;;;;;;16.63;5.45;;;;;;;11.10;68.73;100034.19;4990882;28;20097;-86
2023/03/27 00:24:44;;;;;;;18.58;5.05;;;;;;;11.17;68.68;100031.78;4956336;28;20030;-87
2023/03/27 00:27:10;;;;;;;19.23;4.82;;;;;;;10.91;67.99;100027.00;4990891;28;20030;-86
2023/03/27 00:29:35;;;;;;;17.10;5.75;;;;;;;11.00;67.88;100025.31;4993599;28;20121;-86
2023/03/27 00:32:01;;;;;;;12.70;4.85;;;;;;;11.00;67.65;100032.53;4991572;28;20122;-86
2023/03/27 00:34:27;;;;;;;20.15;5.28;;;;;;;10.97;67.97;100027.41;4990700;28;20022;-86
2023/03/27 00:36:53;;;;;;;9.85;4.32;;;;;;;10.80;68.52;100008.28;4991393;28;20030;-85
2023/03/27 00:39:19;;;;;;;8.73;4.90;;;;;;;10.91;67.95;100015.41;4992977;28;20026;-87
2023/03/27 00:41:45;;;;;;;14.68;5.25;;;;;;;10.89;68.44;100020.91;4976689;28;20034;-87
2023/03/27 00:44:33;;;;;;;13.30;4.82;;;;;;;10.95;68.61;100015.97;4993936;28;20107;-86
2023/03/27 00:47:01;;;;;;;11.60;4.75;;;;;;;10.99;68.49;100022.75;5012273;28;20046;-85
2023/03/27 00:49:31;;;;;;;10.60;4.82;;;;;;;10.96;68.86;100012.25;5009599;28;20549;-85
2023/03/27 00:51:58;;;;;;;13.02;4.97;;;;;;;10.97;68.60;100008.59;4992533;28;20042;-86
2023/03/27 00:54:31;;;;;;;9.32;5.03;;;;;;;10.99;68.61;100011.97;5003433;28;20022;-87
2023/03/27 00:57:01;;;;;;;22.02;4.90;;;;;;;10.93;68.94;100011.56;5009961;28;20033;-83
2023/03/27 00:59:33;;;;;;;8.32;4.75;;;;;;;10.86;69.18;100001.50;5012458;28;20046;-84
2023/03/27 01:02:01;;;;;;;11.55;4.68;;;;;;;10.80;69.36;99988.63;4991325;28;20054;-84
2023/03/27 01:04:26;;;;;;;10.00;4.18;;;;;;;10.77;69.13;99994.28;5002790;28;20033;-84
2023/03/27 01:06:55;;;;;;;15.30;4.40;;;;;;;10.81;69.23;99990.31;4993189;28;20042;-85
2023/03/27 01:09:20;;;;;;;9.85;3.63;;;;;;;10.79;69.44;99997.69;4958208;28;20113;-86
2023/03/27 01:12:14;;;;;;;5.53;3.70;;;;;;;10.81;68.55;99987.63;4992336;28;20538;-87
2023/03/27 01:15:01;;;;;;;11.25;4.07;;;;;;;10.62;68.20;99977.72;4992069;28;20562;-87
2023/03/27 01:17:57;;;;;;;7.70;3.80;;;;;;;10.62;68.48;99975.03;4972942;28;20135;-85
2023/03/27 01:20:41;;;;;;;11.60;3.63;;;;;;;10.24;68.63;99964.25;4990517;28;20091;-87
2023/03/27 01:23:38;;;;;;;11.65;4.20;;;;;;;10.35;68.63;99974.88;4990171;28;20053;-85
2023/03/27 01:26:44;;;;;;;10.07;4.60;;;;;;;10.26;68.39;99975.69;4989925;28;20374;-87
2023/03/27 01:29:24;;;;;;;9.48;3.75;;;;;;;10.28;68.77;99969.19;4991231;28;20022;-84
2023/03/27 01:32:23;;;;;;;6.35;3.47;;;;;;;10.34;68.69;99973.16;4992254;28;20027;-85
2023/03/27 01:35:01;;;;;;;13.95;3.70;;;;;;;10.38;68.55;99969.22;4991515;28;20037;-86
2023/03/27 01:38:02;;;;;;;7.55;3.50;;;;;;;10.32;68.44;99959.03;4991198;28;20030;-86
2023/03/27 01:40:42;;;;;;;15.73;3.80;;;;;;;10.40;68.20;99950.28;4992509;28;20086;-87
2023/03/27 01:43:20;;;;;;;12.88;4.13;;;;;;;10.42;67.83;99957.19;4994541;28;20105;-84
2023/03/27 01:46:00;;;;;;;15.00;3.97;;;;;;;10.46;67.81;99963.97;5013084;28;20046;-83
2023/03/27 01:48:43;;;;;;;5.18;3.25;;;;;;;10.35;67.68;99948.84;5010952;28;20054;-85
2023/03/27 01:51:15;;;;;;;11.45;3.90;;;;;;;10.34;67.68;99946.28;4990567;28;20026;-85
2023/03/27 01:53:48;;;;;;;18.65;4.80;;;;;;;10.42;67.87;99954.50;4990049;28;20026;-85
2023/03/27 01:56:31;;;;;;;17.08;4.78;;;;;;;10.50;67.50;99951.09;4990479;28;20022;-87
2023/03/27 01:59:05;;;;;;;7.75;3.10;;;;;;;10.53;67.39;99953.50;4989848;28;20118;-85
2023/03/27 02:01:36;;;;;;;9.45;3.95;;;;;;;10.52;67.02;99944.59;4990185;28;20058;-85
2023/03/27 02:04:03;;;;;;;15.30;4.38;;;;;;;10.52;66.95;99936.53;4990051;28;20033;-86
2023/03/27 02:06:34;;;;;;;8.13;2.90;;;;;;;10.53;66.79;99940.94;4990532;28;20101;-85
2023/03/27 02:09:08;;;;;;;10.68;4.38;;;;;;;10.54;66.71;99937.25;4990674;28;20097;-84
2023/03/27 02:11:39;;;;;;;13.82;5.30;;;;;;;10.43;66.74;99912.34;4990724;28;20604;-85
2023/03/27 02:14:12;;;;;;;25.17;5.10;;;;;;;10.33;66.60;99925.78;4991510;28;20030;-84
2023/03/27 02:16:41;;;;;;;;;;;;;;;10.41;67.14;99938.50;4991159;28;20026;-83
2023/03/27 02:19:13;;;;;;;17.58;4.20;;;;;;;10.37;66.80;99938.78;4991523;28;20008;-85
2023/03/27 02:21:39;;;;;;;13.80;3.70;;;;;;;10.37;67.00;99929.88;4990056;28;20533;-86
2023/03/27 02:24:04;;;;;;;14.93;4.38;;;;;;;10.41;66.37;99925.91;4991182;28;20034;-86
2023/03/27 02:26:32;;;;;;;12.32;4.95;;;;;;;10.40;67.02;99932.28;4990692;28;20065;-86
2023/03/27 02:29:34;;;;;;;7.60;4.22;;;;;;;10.32;66.73;99922.25;4972531;28;20037;-87
2023/03/27 02:32:17;;;;;;;30.55;6.32;;;;;;;10.49;66.70;99923.38;4977192;28;20030;-86
2023/03/27 02:34:57;;;;;;;19.73;5.18;;;;;;;10.56;66.74;99916.44;4993846;28;20038;-86
2023/03/27 02:37:51;;;;;;;13.00;4.75;;;;;;;10.49;66.97;99896.47;4978913;28;20026;-87
2023/03/27 02:40:36;;;;;;;14.23;4.88;;;;;;;10.42;66.56;99908.81;4996476;28;20085;-85
2023/03/27 02:43:15;;;;;;;9.25;4.20;;;;;;;10.42;66.23;99898.06;5007430;28;20026;-85
2023/03/27 02:45:51;;;;;;;33.38;6.68;;;;;;;10.54;66.85;99902.31;5012365;28;20018;-83
2023/03/27 02:48:22;;;;;;;25.35;6.18;;;;;;;10.57;66.33;99903.84;4989866;28;20574;-82
2023/03/27 02:51:07;;;;;;;19.17;6.40;;;;;;;10.61;65.71;99898.03;5002066;28;20026;-85
2023/03/27 02:53:43;;;;;;;32.67;6.82;;;;;;;10.59;65.68;99889.28;4996502;28;20054;-87
2023/03/27 02:56:11;;;;;;;30.50;11.00;;;;;;;10.56;65.41;99869.88;4996607;28;20030;-84
2023/03/27 02:59:02;;;;;;;28.55;10.02;;;;;;;10.58;65.32;99887.56;4994711;28;20090;-86
2023/03/27 03:01:31;;;;;;;29.75;8.18;;;;;;;10.51;65.27;99877.53;4992630;28;20145;-85
2023/03/27 03:04:09;;;;;;;18.75;6.03;;;;;;;10.48;65.36;99867.94;4992127;28;20060;-85
2023/03/27 03:06:35;;;;;;;22.60;6.70;;;;;;;10.53;65.44;99880.94;4992276;28;20035;-85
2023/03/27 03:09:05;;;;;;;35.72;7.55;;;;;;;10.53;65.46;99879.09;4994167;28;20046;-85
2023/03/27 03:11:43;;;;;;;13.20;5.82;;;;;;;10.53;65.69;99883.59;4992630;28;20030;-86
2023/03/27 03:14:08;;;;;;;16.55;6.75;;;;;;;10.53;65.84;99876.41;4992658;28;20026;-87
2023/03/27 03:16:34;;;;;;;7.15;4.95;;;;;;;10.52;65.90;99877.38;4975183;28;20070;-86
2023/03/27 03:19:00;;;;;;;19.02;8.30;;;;;;;10.49;67.34;99884.91;4992787;28;20061;-87
2023/03/27 03:21:26;;;;;;;19.05;7.28;;;;;;;10.41;68.80;99868.63;4993758;28;20068;-85
2023/03/27 03:23:51;;;;;;;17.85;8.50;;;;;;;10.49;69.12;99874.16;4979356;28;20424;-86
2023/03/27 03:26:17;;;;;;;25.33;10.40;;;;;;;10.34;70.48;99866.50;4994540;28;20026;-86
2023/03/27 03:28:43;;;;;;;24.58;10.52;;;;;;;10.46;71.64;99877.94;4974421;28;20502;-85
2023/03/27 03:31:09;;;;;;;27.67;11.95;;;;;;;10.53;72.26;99887.16;4992167;28;20027;-86
2023/03/27 03:33:36;;;;;;;25.38;11.20;;;;;;;10.39;73.76;99884.91;4992618;28;20030;-88
2023/03/27 03:36:02;;;;;;;22.90;13.02;;;;;;;10.41;74.01;99882.06;4993951;28;20468;-86
2023/03/27 03:38:29;;;;;;;32.95;13.88;;;;;;;10.35;75.03;99861.97;4994097;28;20030;-85
2023/03/27 03:40:57;;;;;;;29.00;14.32;;;;;;;10.29;75.16;99892.97;4998156;28;20118;-84
2023/03/27 03:43:25;;;;;;;56.08;18.65;;;;;;;10.24;76.01;99883.63;5013497;28;20026;-83
2023/03/27 03:45:52;;;;;;;34.88;15.05;;;;;;;10.26;76.27;99892.41;5013812;28;20034;-87
2023/03/27 03:48:18;;;;;;;33.13;15.20;;;;;;;10.10;77.53;99916.22;4991933;28;20030;-87
2023/03/27 03:50:45;;;;;;;50.00;15.80;;;;;;;9.85;78.60;99883.53;4974560;28;20026;-86
2023/03/27 03:53:12;;;;;;;59.10;15.32;;;;;;;10.01;79.48;99912.56;4975246;28;20494;-86
2023/03/27 03:55:37;;;;;;;139.98;15.30;;;;;;;9.95;80.14;99901.50;4992864;28;20033;-85
2023/03/27 03:58:03;;;;;;;68.22;15.32;;;;;;;9.96;81.43;99914.81;4991618;28;20026;-87
2023/03/27 04:00:28;;;;;;;123.75;16.75;;;;;;;9.92;82.08;99925.97;4992041;28;20041;-84
2023/03/27 04:02:55;;;;;;;125.90;18.17;;;;;;;9.88;83.02;99911.13;4991373;28;20035;-86
2023/03/27 04:05:21;;;;;;;90.38;16.67;;;;;;;9.93;83.56;99903.50;4996299;28;20497;-90
2023/03/27 04:07:48;;;;;;;108.28;18.67;;;;;;;9.96;83.75;99892.47;4992574;28;20059;-80
2023/03/27 04:10:14;;;;;;;266.00;21.80;;;;;;;10.07;84.16;99905.75;4991426;28;20121;-83
2023/03/27 04:12:40;;;;;;;76.30;15.55;;;;;;;10.13;84.35;99895.34;4992965;28;20065;-84
2023/03/27 04:15:06;;;;;;;135.50;16.80;;;;;;;10.15;84.43;99889.84;4992291;28;20033;-84
2023/03/27 04:17:32;;;;;;;120.03;22.98;;;;;;;10.14;84.14;99891.69;4991689;28;20082;-87
2023/03/27 04:19:58;;;;;;;142.77;24.20;;;;;;;10.00;84.13;99883.16;4973690;28;20118;-84
2023/03/27 04:22:25;;;;;;;55.33;21.85;;;;;;;10.10;84.19;99884.84;4990802;28;20068;-84
2023/03/27 04:24:52;;;;;;;69.47;19.73;;;;;;;10.14;84.01;99893.50;4991110;28;20057;-82
2023/03/27 04:27:20;;;;;;;35.28;17.35;;;;;;;10.14;83.61;99880.94;4973639;28;20113;-85
2023/03/27 04:29:46;;;;;;;33.47;18.05;;;;;;;10.21;83.53;99879.38;4973899;28;20045;-88
2023/03/27 04:32:18;;;;;;;42.60;16.83;;;;;;;10.35;82.69;99880.78;4991569;28;20030;-88
2023/03/27 04:34:48;;;;;;;28.30;18.27;;;;;;;10.41;82.95;99877.53;4993772;28;20077;-88
2023/03/27 04:37:14;;;;;;;30.50;15.77;;;;;;;10.46;82.49;99871.75;4974828;28;20140;-87
2023/03/27 04:39:41;;;;;;;27.65;15.30;;;;;;;10.57;81.56;99883.19;4996697;28;20109;-84
2023/03/27 04:42:10;;;;;;;27.85;15.18;;;;;;;10.60;81.22;99876.69;5008809;28;20026;-84
2023/03/27 04:44:36;;;;;;;29.83;15.65;;;;;;;10.66;80.88;99876.97;5004895;28;20109;-91
2023/03/27 04:47:02;;;;;;;49.72;16.45;;;;;;;10.81;80.60;99880.03;4991276;28;20035;-83
2023/03/27 04:49:28;;;;;;;40.88;17.05;;;;;;;10.95;79.74;99876.06;4986568;28;20397;-83
2023/03/27 04:51:54;;;;;;;55.55;16.60;;;;;;;11.05;80.00;99850.81;4989265;28;20114;-82
2023/03/27 04:54:21;;;;;;;38.95;14.82;;;;;;;11.07;79.39;99853.38;4988998;28;20371;-82
2023/03/27 04:56:48;;;;;;;67.68;15.75;;;;;;;11.15;78.73;99840.88;4988949;28;20027;-85
2023/03/27 04:59:14;;;;;;;34.30;13.93;;;;;;;11.31;77.69;99842.94;4990515;28;20026;-84
2023/03/27 05:01:40;;;;;;;69.65;18.33;;;;;;;11.46;77.58;99836.91;4989385;28;20069;-84
2023/03/27 05:04:05;;;;;;;61.55;15.35;;;;;;;11.54;77.34;99825.38;4989452;28;20058;-85
2023/03/27 05:06:31;;;;;;;39.38;13.90;;;;;;;11.76;76.90;99840.31;4990111;28;20405;-88
2023/03/27 05:08:57;;;;;;;68.40;16.00;;;;;;;11.92;75.84;99835.94;4987998;28;20042;-85
2023/03/27 05:11:24;;;;;;;48.88;18.73;;;;;;;11.98;75.73;99824.56;4988662;28;20034;-87
2023/03/27 05:13:50;;;;;;;54.65;15.80;;;;;;;12.13;75.05;99837.47;4989059;28;20030;-80
2023/03/27 05:16:16;;;;;;;42.20;13.18;;;;;;;12.20;74.57;99817.81;4989052;28;20161;-82
2023/03/27 05:18:43;;;;;;;79.97;14.13;;;;;;;12.36;74.31;99833.31;4989133;28;20521;-82
2023/03/27 05:21:09;;;;;;;66.75;15.80;;;;;;;12.54;73.72;99831.44;4988847;28;20030;-80
2023/03/27 05:23:35;;;;;;;119.38;17.00;;;;;;;12.79;73.48;99829.75;4988762;28;20034;-84
2023/03/27 05:26:00;;;;;;;90.65;15.93;;;;;;;12.99;72.66;99826.72;4988519;28;20022;-86
2023/03/27 05:28:26;;;;;;;101.53;15.90;;;;;;;13.18;72.51;99817.53;4988446;28;20040;-86
2023/03/27 05:30:52;;;;;;;96.85;15.77;;;;;;;13.40;72.10;99810.72;4989600;28;20030;-84
2023/03/27 05:33:17;;;;;;;96.22;18.10;;;;;;;13.66;70.33;99825.03;4991205;28;20078;-85
2023/03/27 05:35:46;;;;;;;88.00;15.70;;;;;;;13.93;69.50;99818.50;4989872;28;20785;-84
2023/03/27 05:38:13;;;;;;;59.33;13.40;;;;;;;14.17;68.45;99813.97;4984271;28;20032;-86
2023/03/27 05:40:38;;;;;;;77.15;14.95;;;;;;;14.36;67.36;99815.53;5000503;28;20485;-82
2023/03/27 05:43:04;;;;;;;103.28;16.63;;;;;;;14.53;66.23;99824.47;4992409;28;20030;-81
2023/03/27 05:45:31;;;;;;;50.30;9.77;;;;;;;14.55;65.13;99819.78;4989463;28;20401;-82
2023/03/27 05:47:59;;;;;;;35.08;10.05;;;;;;;14.69;64.08;99808.25;4989979;28;20030;-82
2023/03/27 05:50:31;;;;;;;91.90;16.70;;;;;;;14.78;63.92;99796.38;4989290;28;20045;-85
2023/03/27 05:52:59;;;;;;;58.05;13.23;;;;;;;14.78;65.16;99793.69;4972486;28;20031;-82
2023/03/27 05:55:26;;;;;;;42.53;12.98;;;;;;;14.82;66.22;99821.25;4989315;28;20109;-81
2023/03/27 05:57:52;;;;;;;66.75;12.50;;;;;;;14.79;67.04;99818.91;4989874;28;20030;-79
2023/03/27 06:00:24;;;;;;;74.25;14.98;;;;;;;14.81;67.18;99804.16;4990358;28;20030;-86
2023/03/27 06:02:49;;;;;;;49.65;13.65;;;;;;;14.84;66.87;99816.50;4990005;28;20041;-82
2023/03/27 06:05:15;;;;;;;73.25;13.48;;;;;;;14.88;66.87;99797.06;4991036;28;20121;-81
2023/03/27 06:07:45;;;;;;;71.60;15.02;;;;;;;14.93;65.35;99788.41;4993274;28;20160;-83
2023/03/27 06:10:13;;;;;;;72.15;14.40;;;;;;;15.02;65.17;99782.78;4993369;28;20030;-82
2023/03/27 06:12:40;;;;;;;70.55;13.88;;;;;;;14.98;64.90;99776.03;4993318;28;20527;-82
2023/03/27 06:15:08;;;;;;;56.25;13.95;;;;;;;14.93;65.39;99773.00;4993066;28;20030;-81
2023/03/27 06:17:34;;;;;;;49.70;12.15;;;;;;;14.77;66.38;99751.38;4992427;28;20030;-83
2023/03/27 06:20:01;;;;;;;36.88;10.13;;;;;;;14.78;66.51;99769.31;4993431;28;20030;-82
2023/03/27 06:22:27;;;;;;;48.55;10.68;;;;;;;14.66;66.58;99765.28;4975944;28;20034;-83
2023/03/27 06:24:52;;;;;;;37.45;9.25;;;;;;;14.55;67.29;99769.22;4993279;28;20034;-82
2023/03/27 06:27:19;;;;;;;62.63;11.35;;;;;;;14.53;67.16;99754.13;4993951;28;20179;-84
2023/03/27 06:29:46;;;;;;;30.63;9.52;;;;;;;14.45;67.17;99746.03;4993975;28;20051;-83
2023/03/27 06:32:12;;;;;;;32.63;9.07;;;;;;;14.41;67.41;99733.84;4993523;28;20155;-82
2023/03/27 06:34:37;;;;;;;61.83;13.38;;;;;;;14.50;66.75;99746.34;4998519;28;20022;-83
2023/03/27 06:37:03;;;;;;;26.75;10.45;;;;;;;14.55;66.39;99752.13;5006764;28;20125;-84
2023/03/27 06:39:29;;;;;;;72.70;12.50;;;;;;;14.67;66.38;99750.75;5004448;28;20069;-83
2023/03/27 06:41:55;;;;;;;33.10;11.27;;;;;;;14.78;65.68;99752.22;4993341;28;20034;-83
2023/03/27 06:44:21;;;;;;;43.15;12.13;;;;;;;14.84;65.67;99752.38;4994197;28;20387;-83
2023/03/27 06:46:46;;;;;;;39.95;10.75;;;;;;;14.89;64.63;99750.00;4993446;28;20034;-83
2023/03/27 06:49:12;;;;;;;28.85;10.45;;;;;;;14.89;63.81;99743.75;4992666;28;20023;-82
2023/03/27 06:51:38;;;;;;;22.98;8.95;;;;;;;14.93;62.89;99743.22;4993052;28;20031;-81
2023/03/27 06:54:03;;;;;;;20.77;9.88;;;;;;;14.86;61.76;99727.88;4992699;28;20024;-83
2023/03/27 06:56:29;;;;;;;24.85;9.80;;;;;;;14.79;62.16;99733.13;4993382;28;20061;-81
2023/03/27 06:58:55;;;;;;;35.88;9.45;;;;;;;14.92;62.05;99722.56;4993088;28;20430;-82
2023/03/27 07:01:20;;;;;;;44.10;10.13;;;;;;;15.05;61.71;99728.28;4993242;28;20030;-81
2023/03/27 07:03:46;;;;;;;43.10;10.32;;;;;;;15.01;60.87;99728.81;4992879;28;20600;-83
2023/03/27 07:06:11;;;;;;;21.10;7.97;;;;;;;14.95;60.90;99727.63;4993469;28;20066;-81
2023/03/27 07:08:37;;;;;;;25.40;8.25;;;;;;;14.88;60.98;99725.81;4993534;28;20051;-82
2023/03/27 07:11:02;;;;;;;33.88;9.85;;;;;;;14.86;61.55;99727.88;4993709;28;20026;-82
2023/03/27 07:13:29;;;;;;;40.75;10.25;;;;;;;14.73;60.90;99709.47;4994184;28;20061;-82
2023/03/27 07:15:54;;;;;;;21.88;7.70;;;;;;;14.88;61.28;99710.41;4998818;28;20022;-83
2023/03/27 07:18:21;;;;;;;11.25;6.28;;;;;;;14.86;60.22;99704.31;4992043;28;20037;-83
2023/03/27 07:20:49;;;;;;;46.55;12.73;;;;;;;14.92;60.78;99690.06;4991795;28;20105;-83
2023/03/27 07:23:14;;;;;;;17.35;10.10;;;;;;;14.94;60.67;99704.31;4991036;28;20484;-83
2023/03/27 07:25:40;;;;;;;26.88;8.40;;;;;;;14.98;60.82;99683.97;4992491;28;20030;-83
2023/03/27 07:28:12;;;;;;;20.35;8.05;;;;;;;14.88;61.74;99696.88;4993499;28;20088;-83
2023/03/27 07:30:38;;;;;;;;;;;;;;;14.98;61.64;99700.22;5001273;28;20105;-81
2023/03/27 07:33:06;;;;;;;27.27;7.43;;;;;;;14.99;61.33;99701.06;5000335;28;19952;-82
2023/03/27 07:35:32;;;;;;;32.50;8.15;;;;;;;14.85;61.88;99694.53;5011044;28;20018;-83
2023/03/27 07:37:58;;;;;;;12.75;6.53;;;;;;;14.69;62.73;99695.44;5004149;28;20030;-82
2023/03/27 07:40:25;;;;;;;16.30;7.25;;;;;;;14.15;63.65;99707.00;5008340;28;20070;-82
2023/03/27 07:42:52;;;;;;;24.92;6.97;;;;;;;14.03;65.40;99702.94;5010184;28;20041;-82
2023/03/27 07:45:19;;;;;;;13.88;8.05;;;;;;;14.00;66.28;99693.31;4991477;28;20022;-81
2023/03/27 07:47:46;;;;;;;12.85;7.60;;;;;;;14.03;66.63;99698.38;4992659;28;20034;-82
2023/03/27 07:50:17;;;;;;;25.02;9.60;;;;;;;14.01;66.88;99694.97;4973415;28;20065;-82
2023/03/27 07:52:45;;;;;;;105.82;15.55;;;;;;;14.05;67.51;99699.06;4974400;28;20474;-81
2023/03/27 07:55:17;;;;;;;12.68;7.00;;;;;;;13.94;67.95;99685.84;4991993;28;20034;-83
2023/03/27 07:57:48;;;;;;;26.05;8.93;;;;;;;14.10;68.13;99693.13;4991177;28;20026;-82
2023/03/27 08:00:16;;;;;;;24.13;8.32;;;;;;;14.04;68.68;99688.38;4991405;28;20073;-82
2023/03/27 08:02:44;;;;;;;22.13;8.57;;;;;;;13.93;69.39;99686.88;4991382;28;20034;-83
2023/03/27 08:05:10;;;;;;;19.02;7.47;;;;;;;14.08;70.02;99692.44;4990977;28;20026;-81
2023/03/27 08:07:36;;;;;;;21.27;8.77;;;;;;;14.08;70.15;99663.56;4990423;28;20129;-82
2023/03/27 08:10:05;;;;;;;38.33;8.93;;;;;;;14.20;69.96;99688.38;4990725;28;20125;-81
2023/03/27 08:12:32;;;;;;;22.80;9.82;;;;;;;14.40;70.46;99683.50;4990570;28;20030;-83
2023/03/27 08:14:57;;;;;;;34.10;9.02;;;;;;;14.62;69.17;99672.78;4990530;28;20053;-81
2023/03/27 08:17:26;;;;;;;19.40;9.60;;;;;;;14.70;68.51;99647.56;4990493;28;20066;-81
2023/03/27 08:19:52;;;;;;;32.67;13.07;;;;;;;14.63;67.00;99646.56;4990465;28;20093;-81
2023/03/27 08:22:19;;;;;;;20.48;9.38;;;;;;;14.73;66.66;99649.91;4990695;28;20030;-84
2023/03/27 08:24:45;;;;;;;36.50;10.68;;;;;;;14.88;66.05;99642.75;4990879;28;20030;-83
2023/03/27 08:27:11;;;;;;;18.95;9.63;;;;;;;15.02;65.70;99625.75;4990296;28;20030;-82
2023/03/27 08:29:37;;;;;;;34.38;10.73;;;;;;;14.86;66.06;99617.69;4990411;28;20033;-83
2023/03/27 08:32:04;;;;;;;31.52;11.05;;;;;;;15.00;65.72;99621.53;5001082;28;20069;-84
2023/03/27 08:34:29;;;;;;;32.33;10.23;;;;;;;15.19;65.70;99621.09;5004114;28;20463;-83
2023/03/27 08:36:55;;;;;;;24.95;9.48;;;;;;;15.17;65.78;99623.97;4994458;28;20037;-81
2023/03/27 08:39:21;;;;;;;17.38;9.65;;;;;;;14.99;65.55;99615.25;4990688;28;20434;-83
2023/03/27 08:41:58;;;;;;;44.53;10.70;;;;;;;14.94;66.43;99608.69;4991022;28;20034;-83
2023/03/27 08:44:26;;;;;;;24.42;10.05;;;;;;;14.61;67.23;99597.19;4990581;28;20125;-81
2023/03/27 08:47:00;;;;;;;27.88;10.52;;;;;;;14.70;68.44;99588.00;4990446;28;20031;-81
2023/03/27 08:49:37;;;;;;;21.52;10.25;;;;;;;14.49;68.23;99585.91;4990060;28;20397;-82
2023/03/27 08:52:14;;;;;;;36.47;10.38;;;;;;;14.57;69.24;99595.84;4990789;28;20517;-81
2023/03/27 08:54:43;;;;;;;22.33;10.35;;;;;;;14.77;67.98;99586.25;4989851;28;20504;-82
2023/03/27 08:57:20;;;;;;;27.58;11.93;;;;;;;15.04;68.07;99585.81;4989999;28;20486;-84
2023/03/27 08:59:46;;;;;;;22.42;11.18;;;;;;;15.05;67.53;99570.38;4989795;28;20057;-83
2023/03/27 09:02:28;;;;;;;26.60;10.40;;;;;;;15.16;67.47;99573.53;4989827;28;20109;-83
2023/03/27 09:05:03;;;;;;;48.88;12.93;;;;;;;15.13;67.74;99562.22;4989887;28;20149;-81
2023/03/27 09:07:43;;;;;;;37.75;11.50;;;;;;;15.24;67.81;99559.06;4989653;28;20050;-83
2023/03/27 09:10:23;;;;;;;19.30;12.77;;;;;;;15.18;68.11;99576.06;4990202;28;20049;-83
2023/03/27 09:13:17;;;;;;;37.58;15.27;;;;;;;15.43;68.96;99580.28;4989683;28;20018;-83
2023/03/27 09:16:06;;;;;;;34.92;13.75;;;;;;;15.39;68.34;99561.84;4990066;28;20046;-81
2023/03/27 09:19:01;;;;;;;50.10;15.15;;;;;;;15.27;68.47;99559.56;4990021;28;20034;-82
2023/03/27 09:21:50;;;;;;;35.15;16.63;;;;;;;15.26;69.43;99560.56;4989321;28;20045;-81
2023/03/27 09:24:31;;;;;;;140.55;25.40;;;;;;;15.20;69.49;99530.66;4910356;29;20103;-82
2023/03/27 09:27:10;;;;;;;52.33;19.42;;;;;;;15.18;69.57;99549.81;4910422;29;20110;-82
2023/03/27 09:29:40;;;;;;;48.30;18.13;;;;;;;15.21;69.47;99540.47;4901662;29;20048;-84
2023/03/27 09:32:15;;;;;;;46.25;20.00;;;;;;;15.26;69.80;99547.03;4924770;29;20032;-82
2023/03/27 09:34:42;;;;;;;34.45;20.08;;;;;;;15.30;69.37;99541.25;4918583;29;20515;-83
2023/03/27 09:37:12;;;;;;;31.50;19.70;;;;;;;15.12;69.37;99526.16;4910634;29;20492;-82
2023/03/27 09:39:40;;;;;;;56.90;25.73;;;;;;;15.43;69.03;99525.22;4912487;29;20035;-81
2023/03/27 09:42:16;;;;;;;33.65;21.88;;;;;;;15.47;68.39;99511.16;4914310;29;20040;-83
2023/03/27 09:44:45;;;;;;;48.00;22.85;;;;;;;15.45;68.19;99512.34;4913729;29;20040;-81
2023/03/27 09:47:14;;;;;;;52.58;22.48;;;;;;;15.71;68.01;99513.66;4914178;29;20068;-83
2023/03/27 09:49:49;;;;;;;47.35;23.20;;;;;;;15.89;67.24;99507.88;4913960;29;20039;-83
2023/03/27 09:52:35;;;;;;;59.33;22.63;;;;;;;15.90;66.82;99506.81;4914323;29;20638;-84
2023/03/27 09:55:01;;;;;;;43.72;24.52;;;;;;;15.59;67.37;99492.59;4913471;29;20040;-81
2023/03/27 09:57:33;;;;;;;49.60;25.30;;;;;;;15.63;67.50;99505.59;4913696;29;20115;-80
2023/03/27 10:00:08;;;;;;;48.08;24.00;;;;;;;15.69;66.98;99493.16;4913809;29;20118;-83
2023/03/27 10:02:33;;;;;;;52.55;23.15;;;;;;;15.68;67.22;99496.91;4993103;28;20037;-81
2023/03/27 10:05:15;;;;;;;39.60;23.05;;;;;;;15.63;67.39;99485.78;4992756;28;20043;-82
2023/03/27 10:07:42;;;;;;;41.88;23.08;;;;;;;15.54;66.88;99492.28;4992867;28;20063;-83
2023/03/27 10:10:18;;;;;;;40.80;22.67;;;;;;;15.46;67.60;99471.53;4993131;28;20030;-83
2023/03/27 10:12:52;;;;;;;39.40;22.40;;;;;;;15.49;67.10;99465.78;4993197;28;20406;-81
2023/03/27 10:15:37;;;;;;;54.15;23.85;;;;;;;15.46;67.27;99459.84;4993008;28;20113;-82
2023/03/27 10:18:17;;;;;;;38.88;23.67;;;;;;;15.41;67.60;99446.81;4932556;29;20799;-83
2023/03/27 10:20:50;;;;;;;43.95;23.85;;;;;;;15.58;67.93;99452.97;4932708;29;20032;-83
2023/03/27 10:23:24;;;;;;;46.35;22.13;;;;;;;15.52;67.64;99440.16;4932882;29;20062;-84
2023/03/27 10:25:51;;;;;;;57.85;25.23;;;;;;;15.62;67.32;99446.16;4932645;29;20644;-82
2023/03/27 10:28:28;;;;;;;53.33;23.35;;;;;;;15.81;66.71;99448.28;4939897;29;20071;-81
2023/03/27 10:30:58;;;;;;;38.80;22.05;;;;;;;16.09;64.89;99434.91;4944965;29;20220;-82
2023/03/27 10:33:39;;;;;;;30.85;21.33;;;;;;;16.22;64.43;99435.94;4938759;29;20040;-82
2023/03/27 10:36:08;;;;;;;35.30;20.98;;;;;;;16.05;63.81;99417.34;4885191;29;20603;-82
2023/03/27 10:38:37;;;;;;;42.47;21.17;;;;;;;16.07;63.69;99423.41;4932510;29;20047;-82
2023/03/27 10:41:10;;;;;;;35.83;21.45;;;;;;;16.05;63.35;99429.06;4932735;29;20031;-82
2023/03/27 10:43:41;;;;;;;51.35;22.80;;;;;;;16.22;63.85;99418.81;4931943;29;20491;-82
2023/03/27 10:46:25;;;;;;;49.20;23.70;;;;;;;16.38;63.88;99407.75;4932071;29;21377;-84
2023/03/27 10:49:03;;;;;;;38.95;22.52;;;;;;;16.61;63.60;99394.00;4956919;28;20067;-83
2023/03/27 10:52:08;;;;;;;50.38;25.00;;;;;;;16.49;63.98;99376.53;4991172;28;20018;-82
2023/03/27 10:54:42;;;;;;;44.40;24.00;;;;;;;16.36;64.42;99357.41;4992283;28;20113;-83
2023/03/27 10:57:22;;;;;;;47.03;22.70;;;;;;;16.38;64.02;99352.63;4991320;28;20081;-81
2023/03/27 11:00:09;;;;;;;55.35;24.33;;;;;;;16.19;65.02;99363.06;4992682;28;20525;-82
2023/03/27 11:02:56;;;;;;;52.28;24.83;;;;;;;16.07;65.51;99353.75;4992495;28;20042;-82
2023/03/27 11:05:32;;;;;;;46.10;25.13;;;;;;;15.93;66.25;99349.19;4991835;28;20120;-84
2023/03/27 11:08:11;;;;;;;252.18;45.83;;;;;;;15.85;66.13;99334.91;4992935;28;20046;-84
2023/03/27 11:10:43;;;;;;;73.97;25.42;;;;;;;15.72;65.97;99324.72;4994895;28;20100;-81
2023/03/27 11:13:29;;;;;;;43.22;23.17;;;;;;;15.43;67.20;99324.72;4996237;28;20031;-81
2023/03/27 11:16:14;;;;;;;39.63;22.90;;;;;;;15.38;67.56;99321.75;4997619;28;20061;-82
2023/03/27 11:19:01;;;;;;;59.20;26.13;;;;;;;15.51;67.82;99320.09;4994146;28;20124;-81
2023/03/27 11:21:48;;;;;;;58.35;27.48;;;;;;;15.74;66.99;99323.53;4994203;28;20022;-82
2023/03/27 11:24:33;;;;;;;70.35;26.35;;;;;;;15.66;66.85;99309.22;4992929;28;20034;-82
2023/03/27 11:27:03;;;;;;;52.33;24.10;;;;;;;15.53;66.89;99306.38;5002912;28;20022;-84
2023/03/27 11:29:38;;;;;;;48.53;23.45;;;;;;;15.45;67.25;99317.25;5003912;28;20041;-82
2023/03/27 11:32:26;;;;;;;46.72;24.35;;;;;;;15.19;67.28;99306.91;4978941;28;20023;-85
2023/03/27 11:35:11;;;;;;;43.58;24.58;;;;;;;15.32;67.30;99309.78;4992892;28;20138;-83
2023/03/27 11:37:47;;;;;;;58.78;23.17;;;;;;;15.46;67.19;99310.81;4993000;28;20069;-83
2023/03/27 11:40:20;;;;;;;54.88;23.00;;;;;;;15.53;66.35;99295.53;4992437;28;20057;-83